createdAt,value
2017-09-29T00:00:22.735Z,71.90
2017-09-29T00:02:48.902Z,72.10
2017-09-29T00:05:15.056Z,72.40
2017-09-29T00:07:41.224Z,72.40
2017-09-29T00:10:07.432Z,72.50
2017-09-29T00:12:33.672Z,72.50
2017-09-29T00:14:59.845Z,72.40
2017-09-29T00:17:26.035Z,72.40
2017-09-29T00:19:52.961Z,72.50
2017-09-29T00:22:19.919Z,72.40
2017-09-29T00:24:46.098Z,72.40
2017-09-29T00:27:12.266Z,72.30
2017-09-29T00:29:38.450Z,72.20
2017-09-29T00:32:04.664Z,72.50
2017-09-29T00:34:30.871Z,72.40
2017-09-29T00:36:57.055Z,72.40
2017-09-29T00:39:23.215Z,72.10
2017-09-29T00:41:49.403Z,72.30
2017-09-29T00:44:16.413Z,72.60
2017-09-29T00:46:42.591Z,72.60
2017-09-29T00:49:08.815Z,72.90
2017-09-29T00:51:35.045Z,73.00
2017-09-29T00:54:01.283Z,72.70
2017-09-29T00:56:27.646Z,72.60
2017-09-29T00:58:53.858Z,72.70
2017-09-29T01:01:20.113Z,72.80
2017-09-29T01:03:46.331Z,72.70
2017-09-29T01:06:12.584Z,72.70
2017-09-29T01:08:38.848Z,72.70
2017-09-29T01:11:05.051Z,72.50
2017-09-29T01:13:31.298Z,73.10
2017-09-29T01:15:57.510Z,72.30
2017-09-29T01:18:23.713Z,72.50
2017-09-29T01:20:49.919Z,72.70
2017-09-29T01:23:16.167Z,73.10
2017-09-29T01:25:42.402Z,73.10
2017-09-29T01:28:08.629Z,73.10
2017-09-29T01:30:34.819Z,72.90
2017-09-29T01:33:01.099Z,73.00
2017-09-29T01:35:28.063Z,73.60
2017-09-29T01:37:54.236Z,73.60
2017-09-29T01:40:20.508Z,73.60
2017-09-29T01:42:46.763Z,73.60
2017-09-29T01:45:12.962Z,73.60
2017-09-29T01:47:39.979Z,74.20
2017-09-29T01:50:07.251Z,73.70
2017-09-29T01:52:34.233Z,73.70
2017-09-29T01:55:00.478Z,73.70
2017-09-29T01:57:26.722Z,73.70
2017-09-29T01:59:53.635Z,74.20
2017-09-29T02:02:19.838Z,74.20
2017-09-29T02:04:46.016Z,74.20
2017-09-29T02:07:12.196Z,74.30
2017-09-29T02:09:38.375Z,74.10
2017-09-29T02:12:04.581Z,74.10
2017-09-29T02:14:30.825Z,74.30
2017-09-29T02:16:57.765Z,74.30
2017-09-29T02:19:24.729Z,74.50
2017-09-29T02:21:50.955Z,74.50
2017-09-29T02:24:17.177Z,74.70
2017-09-29T02:26:43.409Z,74.70
2017-09-29T02:29:10.485Z,74.80
2017-09-29T02:31:36.710Z,74.60
2017-09-29T02:34:02.911Z,74.40
2017-09-29T02:36:29.129Z,74.40
2017-09-29T02:38:55.326Z,74.80
2017-09-29T02:41:21.556Z,74.80
2017-09-29T02:43:47.739Z,74.40
2017-09-29T02:46:14.719Z,74.90
2017-09-29T02:48:40.917Z,74.90
2017-09-29T02:51:07.854Z,75.00
2017-09-29T02:53:34.008Z,75.10
2017-09-29T02:56:00.947Z,75.30
2017-09-29T02:58:29.256Z,75.00
2017-09-29T03:00:57.118Z,75.20
2017-09-29T03:03:24.271Z,75.20
2017-09-29T03:05:51.211Z,75.30
2017-09-29T03:08:17.373Z,75.40
2017-09-29T03:10:43.530Z,75.50
2017-09-29T03:13:09.734Z,75.40
2017-09-29T03:15:35.917Z,75.40
2017-09-29T03:18:02.106Z,75.60
2017-09-29T03:20:28.283Z,76.20
2017-09-29T03:22:54.500Z,76.10
2017-09-29T03:25:21.404Z,76.50
2017-09-29T03:27:47.648Z,76.50
2017-09-29T03:30:13.898Z,76.20
2017-09-29T03:32:40.062Z,76.30
2017-09-29T03:35:06.271Z,76.50
2017-09-29T03:37:32.565Z,76.50
2017-09-29T03:39:58.718Z,76.50
2017-09-29T03:42:24.944Z,76.60
2017-09-29T03:44:51.905Z,76.30
2017-09-29T03:47:18.143Z,76.30
2017-09-29T03:49:44.969Z,76.40
2017-09-29T03:52:13.389Z,76.40
2017-09-29T03:54:41.096Z,76.70
2017-09-29T03:57:08.100Z,76.60
2017-09-29T03:59:34.296Z,76.60
2017-09-29T04:02:00.486Z,76.60
2017-09-29T04:04:27.423Z,76.30
2017-09-29T04:06:54.356Z,76.70
2017-09-29T04:09:20.594Z,76.60
2017-09-29T04:11:46.777Z,76.80
2017-09-29T04:14:13.087Z,76.40
2017-09-29T04:16:40.067Z,76.50
2017-09-29T04:19:06.282Z,76.60
2017-09-29T04:21:32.513Z,76.50
2017-09-29T04:23:58.723Z,76.70
2017-09-29T04:26:25.120Z,76.30
2017-09-29T04:28:51.279Z,76.20
2017-09-29T04:31:17.506Z,76.60
2017-09-29T04:33:44.448Z,77.60
2017-09-29T04:36:10.694Z,76.80
2017-09-29T04:38:37.049Z,76.80
2017-09-29T04:41:03.381Z,76.90
2017-09-29T04:43:30.339Z,77.10
2017-09-29T04:45:56.579Z,77.10
2017-09-29T04:48:22.789Z,77.10
2017-09-29T04:50:49.097Z,76.80
2017-09-29T04:53:15.279Z,76.80
2017-09-29T04:55:41.453Z,76.60
2017-09-29T04:58:07.663Z,76.30
2017-09-29T05:00:33.857Z,76.40
2017-09-29T05:03:00.068Z,76.20
2017-09-29T05:05:26.314Z,76.60
2017-09-29T05:07:52.475Z,76.70
2017-09-29T05:10:18.766Z,77.50
2017-09-29T05:12:45.131Z,76.50
2017-09-29T05:15:12.136Z,76.60
2017-09-29T05:17:38.359Z,76.60
2017-09-29T05:20:04.581Z,76.80
2017-09-29T05:22:30.794Z,76.60
2017-09-29T05:24:56.970Z,76.50
2017-09-29T05:27:23.176Z,76.70
2017-09-29T05:29:49.353Z,76.60
2017-09-29T05:32:15.540Z,76.60
2017-09-29T05:34:41.827Z,76.70
2017-09-29T05:37:07.966Z,76.70
2017-09-29T05:39:34.237Z,76.90
2017-09-29T05:42:00.449Z,76.80
2017-09-29T05:44:27.363Z,76.70
2017-09-29T05:46:53.560Z,76.60
2017-09-29T05:49:19.727Z,76.20
2017-09-29T05:51:45.940Z,75.90
2017-09-29T05:54:12.162Z,75.60
2017-09-29T05:56:38.387Z,75.50
2017-09-29T05:59:04.554Z,75.50
2017-09-29T06:01:31.457Z,76.20
2017-09-29T06:03:57.620Z,76.10
2017-09-29T06:06:23.903Z,76.70
2017-09-29T06:08:50.092Z,76.70
2017-09-29T06:11:16.304Z,76.60
2017-09-29T06:13:42.580Z,76.50
2017-09-29T06:16:08.792Z,76.70
2017-09-29T06:18:35.067Z,76.50
2017-09-29T06:21:01.440Z,76.60
2017-09-29T06:23:27.615Z,76.90
2017-09-29T06:25:55.876Z,77.20
2017-09-29T06:28:22.109Z,77.20
2017-09-29T06:30:48.339Z,77.50
2017-09-29T06:33:14.674Z,77.30
2017-09-29T06:35:40.906Z,77.30
2017-09-29T06:38:07.151Z,77.30
2017-09-29T06:40:33.352Z,77.00
2017-09-29T06:43:00.354Z,76.80
2017-09-29T06:45:26.618Z,76.80
2017-09-29T06:47:52.799Z,76.50
2017-09-29T06:50:19.079Z,76.50
2017-09-29T06:52:45.233Z,76.60
2017-09-29T06:55:11.598Z,76.90
2017-09-29T06:57:37.965Z,76.30
2017-09-29T07:00:04.988Z,75.70
2017-09-29T07:02:31.145Z,75.70
2017-09-29T07:04:57.328Z,76.20
2017-09-29T07:07:23.833Z,76.30
2017-09-29T07:09:50.080Z,76.20
2017-09-29T07:12:16.271Z,76.50
2017-09-29T07:14:43.338Z,76.40
2017-09-29T07:17:09.590Z,76.40
2017-09-29T07:19:36.532Z,76.40
2017-09-29T07:22:03.917Z,76.20
2017-09-29T07:24:32.648Z,76.10
2017-09-29T07:27:07.127Z,76.00
2017-09-29T07:29:34.393Z,76.40
2017-09-29T07:32:01.452Z,76.60
2017-09-29T07:34:27.648Z,76.50
2017-09-29T07:36:53.951Z,76.60
2017-09-29T07:39:20.188Z,76.70
2017-09-29T07:41:46.524Z,75.80
2017-09-29T07:44:13.439Z,75.50
2017-09-29T07:46:40.767Z,75.50
2017-09-29T07:49:06.941Z,75.50
2017-09-29T07:51:36.358Z,74.40
2017-09-29T07:54:03.546Z,73.80
2017-09-29T07:56:30.973Z,73.80
2017-09-29T07:58:57.191Z,73.20
2017-09-29T08:01:23.437Z,72.80
2017-09-29T08:03:49.681Z,73.20
2017-09-29T08:06:15.888Z,72.30
2017-09-29T08:08:42.128Z,72.90
2017-09-29T08:11:08.396Z,71.80
2017-09-29T08:13:34.783Z,72.20
2017-09-29T08:16:01.057Z,72.20
2017-09-29T08:18:27.391Z,71.50
2017-09-29T08:20:53.666Z,71.30
2017-09-29T08:23:21.191Z,70.20
2017-09-29T08:25:48.603Z,70.10
2017-09-29T08:28:15.236Z,70.20
2017-09-29T08:30:42.057Z,70.20
2017-09-29T08:33:08.271Z,70.20
2017-09-29T08:35:34.508Z,69.30
2017-09-29T08:38:01.750Z,69.00
2017-09-29T08:40:27.955Z,68.60
2017-09-29T08:42:54.127Z,68.90
2017-09-29T08:45:20.322Z,68.30
2017-09-29T08:47:46.508Z,68.20
2017-09-29T08:50:12.699Z,68.10
2017-09-29T08:52:38.917Z,67.70
2017-09-29T08:55:05.200Z,67.80
2017-09-29T08:57:31.568Z,66.60
2017-09-29T08:59:57.735Z,66.40
2017-09-29T09:02:23.928Z,66.50
2017-09-29T09:04:50.120Z,67.10
2017-09-29T09:07:16.312Z,65.60
2017-09-29T09:09:42.478Z,65.50
2017-09-29T09:12:08.680Z,65.70
2017-09-29T09:14:34.864Z,65.90
2017-09-29T09:17:01.123Z,66.70
2017-09-29T09:19:27.294Z,65.40
2017-09-29T09:21:53.475Z,66.00
2017-09-29T09:24:19.697Z,65.10
2017-09-29T09:26:46.177Z,65.70
2017-09-29T09:29:13.695Z,64.20
2017-09-29T09:31:40.968Z,63.40
2017-09-29T09:34:08.226Z,63.40
2017-09-29T09:36:34.416Z,62.70
2017-09-29T09:39:01.078Z,62.00
2017-09-29T09:41:27.269Z,61.30
2017-09-29T09:43:53.489Z,61.30
2017-09-29T09:46:20.420Z,61.40
2017-09-29T09:48:47.467Z,61.40
2017-09-29T09:51:14.024Z,61.40
2017-09-29T09:53:40.231Z,60.90
2017-09-29T09:56:06.599Z,61.40
2017-09-29T09:58:32.920Z,61.10
2017-09-29T10:00:59.111Z,60.30
2017-09-29T10:03:25.327Z,61.60
2017-09-29T10:05:51.977Z,58.70
2017-09-29T10:08:18.431Z,59.40
2017-09-29T10:10:44.904Z,58.10
2017-09-29T10:13:12.045Z,58.30
2017-09-29T10:15:38.354Z,58.20
2017-09-29T10:18:04.501Z,58.30
2017-09-29T10:20:30.716Z,57.30
2017-09-29T10:22:57.144Z,56.00
2017-09-29T10:25:23.399Z,55.60
2017-09-29T10:27:50.377Z,56.20
2017-09-29T10:30:16.571Z,55.50
2017-09-29T10:32:42.789Z,56.00
2017-09-29T10:35:09.316Z,55.70
2017-09-29T10:37:35.498Z,56.00
2017-09-29T10:40:01.745Z,53.80
2017-09-29T10:42:27.940Z,53.30
2017-09-29T10:44:54.104Z,53.00
2017-09-29T10:47:21.151Z,52.40
2017-09-29T10:49:47.304Z,52.40
2017-09-29T10:52:13.494Z,51.90
2017-09-29T10:54:39.666Z,51.30
2017-09-29T10:57:06.571Z,50.20
2017-09-29T10:59:32.795Z,50.10
2017-09-29T11:01:59.179Z,50.40
2017-09-29T11:04:25.506Z,50.40
2017-09-29T11:06:51.691Z,51.10
2017-09-29T11:09:17.900Z,50.80
2017-09-29T11:11:44.135Z,51.20
2017-09-29T11:14:10.330Z,51.10
2017-09-29T11:16:36.674Z,51.10
2017-09-29T11:19:03.068Z,50.70
2017-09-29T11:21:29.255Z,50.00
2017-09-29T11:23:55.498Z,49.80
2017-09-29T11:26:21.694Z,49.30
2017-09-29T11:28:47.882Z,49.70
2017-09-29T11:31:14.163Z,49.80
2017-09-29T11:33:40.312Z,48.50
2017-09-29T11:36:07.301Z,48.60
2017-09-29T11:38:33.477Z,48.50
2017-09-29T11:40:59.812Z,48.00
2017-09-29T11:43:26.196Z,47.50
2017-09-29T11:45:52.425Z,46.90
2017-09-29T11:48:18.598Z,46.20
2017-09-29T11:50:44.797Z,45.30
2017-09-29T11:53:11.140Z,45.50
2017-09-29T11:55:37.300Z,43.30
2017-09-29T11:58:03.487Z,42.00
2017-09-29T12:00:29.737Z,42.70
2017-09-29T12:02:55.928Z,42.40
2017-09-29T12:05:22.171Z,42.30
2017-09-29T12:07:48.389Z,42.50
2017-09-29T12:10:14.589Z,43.00
2017-09-29T12:12:40.789Z,43.50
2017-09-29T12:15:07.024Z,43.10
2017-09-29T12:17:33.267Z,42.80
2017-09-29T12:20:00.216Z,42.40
2017-09-29T12:22:26.562Z,43.10
2017-09-29T12:24:52.774Z,41.80
2017-09-29T12:27:19.076Z,41.70
2017-09-29T12:29:45.485Z,41.30
2017-09-29T12:32:11.737Z,40.30
2017-09-29T12:34:37.945Z,39.60
2017-09-29T12:37:04.159Z,38.30
2017-09-29T12:39:30.366Z,39.10
2017-09-29T12:41:56.616Z,38.90
2017-09-29T12:44:22.820Z,40.10
2017-09-29T12:46:49.005Z,39.90
2017-09-29T12:49:15.195Z,40.30
2017-09-29T12:51:41.427Z,39.70
2017-09-29T12:54:07.681Z,40.80
2017-09-29T12:56:33.858Z,41.00
2017-09-29T12:59:00.050Z,40.90
2017-09-29T13:01:26.285Z,40.80
2017-09-29T13:03:52.464Z,41.70
2017-09-29T13:06:18.716Z,42.10
2017-09-29T13:08:44.947Z,43.20
2017-09-29T13:11:12.212Z,43.30
2017-09-29T13:13:38.456Z,43.20
2017-09-29T13:16:04.651Z,43.70
2017-09-29T13:18:31.019Z,43.60
2017-09-29T13:20:57.248Z,44.00
2017-09-29T13:23:23.452Z,44.20
2017-09-29T13:25:49.620Z,45.00
2017-09-29T13:28:15.875Z,45.00
2017-09-29T13:30:42.062Z,44.30
2017-09-29T13:33:08.275Z,44.30
2017-09-29T13:35:34.519Z,44.50
2017-09-29T13:38:00.780Z,44.40
2017-09-29T13:40:27.023Z,43.80
2017-09-29T13:42:53.259Z,44.20
2017-09-29T13:45:19.450Z,43.50
2017-09-29T13:47:45.613Z,43.60
2017-09-29T13:50:11.938Z,43.30
2017-09-29T13:52:38.151Z,43.20
2017-09-29T13:55:04.362Z,43.70
2017-09-29T13:57:31.034Z,43.40
2017-09-29T13:59:57.260Z,43.60
2017-09-29T14:02:23.396Z,43.30
2017-09-29T14:04:49.755Z,42.40
2017-09-29T14:07:15.962Z,43.40
2017-09-29T14:09:42.220Z,43.30
2017-09-29T14:12:08.565Z,42.10
2017-09-29T14:14:34.807Z,42.20
2017-09-29T14:17:01.060Z,42.50
2017-09-29T14:19:27.389Z,42.40
2017-09-29T14:21:53.639Z,42.90
2017-09-29T14:24:20.569Z,41.50
2017-09-29T14:26:46.731Z,41.50
2017-09-29T14:29:13.104Z,41.50
2017-09-29T14:31:39.288Z,41.10
2017-09-29T14:34:05.696Z,42.20
2017-09-29T14:36:31.916Z,42.70
2017-09-29T14:38:58.091Z,42.90
2017-09-29T14:41:24.318Z,42.30
2017-09-29T14:43:50.565Z,42.00
2017-09-29T14:46:17.643Z,41.70
2017-09-29T14:48:45.013Z,41.70
2017-09-29T14:51:11.295Z,41.80
2017-09-29T14:53:37.520Z,42.20
2017-09-29T14:56:03.782Z,42.10
2017-09-29T14:58:30.072Z,42.00
2017-09-29T15:00:56.345Z,42.10
2017-09-29T15:03:23.322Z,42.50
2017-09-29T15:05:49.771Z,42.50
2017-09-29T15:08:16.766Z,42.80
2017-09-29T15:10:42.978Z,42.00
2017-09-29T15:13:09.187Z,42.60
2017-09-29T15:15:35.366Z,42.20
2017-09-29T15:18:01.529Z,42.30
2017-09-29T15:20:27.735Z,42.20
2017-09-29T15:22:53.919Z,42.10
2017-09-29T15:25:20.254Z,41.80
2017-09-29T15:27:46.503Z,42.40
2017-09-29T15:30:12.759Z,42.50
2017-09-29T15:32:38.960Z,44.20
2017-09-29T15:35:05.208Z,44.20
2017-09-29T15:37:31.404Z,44.10
2017-09-29T15:39:57.647Z,42.20
2017-09-29T15:42:23.900Z,42.80
2017-09-29T15:44:50.057Z,44.80
2017-09-29T15:47:16.252Z,43.90
2017-09-29T15:49:42.575Z,43.50
2017-09-29T15:52:08.870Z,42.80
2017-09-29T15:54:35.313Z,43.90
2017-09-29T15:57:01.486Z,44.30
2017-09-29T15:59:27.743Z,44.80
2017-09-29T16:01:53.931Z,45.80
2017-09-29T16:04:20.130Z,47.20
2017-09-29T16:06:46.416Z,46.80
2017-09-29T16:09:13.350Z,51.90
2017-09-29T16:11:40.405Z,52.50
2017-09-29T16:14:06.587Z,51.80
2017-09-29T16:16:33.823Z,51.70
2017-09-29T16:19:00.086Z,51.60
2017-09-29T16:21:26.339Z,52.30
2017-09-29T16:23:53.030Z,53.00
2017-09-29T16:26:19.235Z,52.90
2017-09-29T16:28:45.386Z,53.30
2017-09-29T16:31:11.573Z,53.00
2017-09-29T16:33:37.764Z,52.70
2017-09-29T16:36:03.925Z,53.00
2017-09-29T16:38:30.280Z,52.50
2017-09-29T16:40:56.467Z,52.80
2017-09-29T16:43:22.691Z,52.90
2017-09-29T16:45:48.891Z,53.70
2017-09-29T16:48:15.087Z,54.00
2017-09-29T16:50:41.270Z,53.70
2017-09-29T16:53:07.578Z,55.00
2017-09-29T16:55:33.789Z,54.50
2017-09-29T16:57:59.996Z,54.90
2017-09-29T17:00:26.250Z,55.40
2017-09-29T17:02:52.460Z,55.40
2017-09-29T17:05:18.635Z,55.60
2017-09-29T17:07:44.844Z,55.90
2017-09-29T17:10:11.070Z,56.70
2017-09-29T17:12:37.219Z,57.50
2017-09-29T17:15:03.389Z,57.60
2017-09-29T17:17:29.574Z,58.40
2017-09-29T17:19:56.540Z,59.10
2017-09-29T17:22:23.513Z,59.70
2017-09-29T17:24:49.815Z,59.80
2017-09-29T17:27:16.048Z,60.20
2017-09-29T17:29:42.255Z,60.30
2017-09-29T17:32:08.464Z,61.10
2017-09-29T17:34:34.861Z,61.20
2017-09-29T17:37:01.083Z,62.40
2017-09-29T17:39:27.302Z,61.00
2017-09-29T17:41:53.531Z,61.30
2017-09-29T17:44:19.732Z,61.00
2017-09-29T17:46:46.034Z,61.50
2017-09-29T17:49:12.298Z,61.70
2017-09-29T17:51:38.543Z,62.20
2017-09-29T17:54:04.795Z,62.70
2017-09-29T17:56:31.018Z,62.70
2017-09-29T17:58:57.309Z,63.10
2017-09-29T18:01:23.542Z,63.60
2017-09-29T18:03:49.731Z,63.90
2017-09-29T18:06:16.002Z,63.70
2017-09-29T18:08:42.230Z,64.20
2017-09-29T18:11:08.428Z,64.20
2017-09-29T18:13:34.875Z,64.20
2017-09-29T18:16:01.097Z,64.40
2017-09-29T18:18:27.344Z,64.40
2017-09-29T18:20:53.606Z,64.60
2017-09-29T18:23:19.831Z,64.60
2017-09-29T18:25:46.043Z,64.50
2017-09-29T18:28:12.245Z,64.30
2017-09-29T18:30:38.431Z,64.30
2017-09-29T18:33:05.333Z,64.50
2017-09-29T18:35:31.528Z,64.50
2017-09-29T18:37:57.856Z,64.20
2017-09-29T18:40:39.268Z,64.40
2017-09-29T18:43:12.219Z,64.50
2017-09-29T18:45:39.199Z,64.60
2017-09-29T18:48:05.386Z,64.60
2017-09-29T18:50:31.634Z,64.10
2017-09-29T18:52:57.802Z,64.00
2017-09-29T18:55:23.948Z,63.70
2017-09-29T18:57:50.112Z,64.00
2017-09-29T19:00:16.295Z,63.90
2017-09-29T19:02:42.468Z,63.90
2017-09-29T19:05:08.668Z,63.70
2017-09-29T19:07:34.840Z,64.10
2017-09-29T19:10:01.058Z,64.20
2017-09-29T19:12:27.222Z,64.20
2017-09-29T19:14:53.386Z,64.10
2017-09-29T19:17:19.557Z,64.30
2017-09-29T19:19:45.714Z,64.80
2017-09-29T19:22:11.938Z,64.60
2017-09-29T19:24:38.190Z,64.60
2017-09-29T19:27:05.300Z,64.60
2017-09-29T19:29:31.527Z,64.80
2017-09-29T19:31:57.681Z,65.00
2017-09-29T19:34:23.880Z,65.20
2017-09-29T19:36:51.084Z,65.40
2017-09-29T19:39:17.354Z,65.50
2017-09-29T19:41:43.523Z,65.50
2017-09-29T19:44:09.671Z,65.80
2017-09-29T19:46:35.814Z,65.50
2017-09-29T19:49:02.716Z,65.90
2017-09-29T19:51:28.846Z,65.90
2017-09-29T19:53:54.999Z,65.80
2017-09-29T19:56:21.133Z,65.60
2017-09-29T19:58:47.298Z,66.10
2017-09-29T20:01:13.451Z,66.10
2017-09-29T20:03:39.627Z,66.40
2017-09-29T20:06:05.766Z,66.40
2017-09-29T20:08:31.903Z,66.80
2017-09-29T20:10:58.059Z,66.50
2017-09-29T20:13:24.930Z,67.00
2017-09-29T20:15:51.085Z,67.00
2017-09-29T20:18:18.046Z,67.20
2017-09-29T20:20:44.258Z,67.10
2017-09-29T20:23:10.413Z,67.00
2017-09-29T20:25:36.623Z,67.20
2017-09-29T20:28:03.567Z,67.10
2017-09-29T20:30:30.325Z,67.40
2017-09-29T20:32:57.191Z,68.10
2017-09-29T20:35:23.347Z,67.30
2017-09-29T20:37:49.488Z,67.20
2017-09-29T20:40:15.736Z,67.40
2017-09-29T20:42:41.931Z,67.60
2017-09-29T20:45:08.094Z,67.60
2017-09-29T20:47:34.317Z,67.60
2017-09-29T20:50:01.258Z,67.90
2017-09-29T20:52:27.471Z,68.00
2017-09-29T20:54:54.532Z,67.80
2017-09-29T20:57:20.712Z,67.90
2017-09-29T20:59:46.976Z,68.20
2017-09-29T21:02:13.196Z,68.10
2017-09-29T21:04:39.439Z,68.00
2017-09-29T21:07:05.696Z,68.10
2017-09-29T21:09:31.899Z,68.50
2017-09-29T21:11:58.153Z,68.30
2017-09-29T21:14:24.355Z,68.60
2017-09-29T21:16:50.489Z,68.60
2017-09-29T21:19:16.696Z,68.60
2017-09-29T21:21:42.875Z,68.60
2017-09-29T21:24:09.054Z,68.90
2017-09-29T21:26:42.467Z,68.70
2017-09-29T21:29:08.680Z,68.70
2017-09-29T21:31:35.016Z,68.60
2017-09-29T21:34:01.403Z,68.80
2017-09-29T21:36:27.585Z,68.90
2017-09-29T21:38:53.786Z,68.90
2017-09-29T21:41:19.958Z,69.00
2017-09-29T21:43:46.212Z,69.20
2017-09-29T21:46:13.211Z,69.70
2017-09-29T21:48:39.424Z,69.50
2017-09-29T21:51:05.598Z,69.40
2017-09-29T21:53:31.794Z,69.40
2017-09-29T21:55:58.023Z,69.30
2017-09-29T21:58:25.044Z,69.30
2017-09-29T22:00:51.254Z,69.30
2017-09-29T22:03:18.137Z,70.60
2017-09-29T22:05:44.294Z,69.90
2017-09-29T22:08:10.450Z,69.60
2017-09-29T22:10:36.744Z,69.90
2017-09-29T22:13:02.950Z,69.80
2017-09-29T22:15:29.960Z,69.80
2017-09-29T22:17:56.321Z,69.80
2017-09-29T22:20:23.220Z,70.20
2017-09-29T22:22:50.208Z,69.70
2017-09-29T22:25:16.414Z,69.60
2017-09-29T22:27:42.574Z,70.60
2017-09-29T22:30:09.456Z,69.60
2017-09-29T22:32:35.654Z,69.60
2017-09-29T22:35:01.812Z,70.90
2017-09-29T22:37:27.986Z,70.40
2017-09-29T22:39:54.174Z,70.30
2017-09-29T22:42:20.359Z,69.70
2017-09-29T22:44:47.287Z,71.00
2017-09-29T22:47:13.463Z,70.40
2017-09-29T22:49:39.631Z,70.20
2017-09-29T22:52:05.831Z,71.00
2017-09-29T22:54:32.043Z,71.10
2017-09-29T22:56:59.047Z,71.50
2017-09-29T22:59:25.255Z,71.50
2017-09-29T23:01:51.488Z,71.70
2017-09-29T23:04:17.703Z,71.40
2017-09-29T23:06:43.884Z,71.70
2017-09-29T23:09:10.087Z,71.70
2017-09-29T23:11:36.260Z,71.60
2017-09-29T23:14:03.212Z,71.40
2017-09-29T23:16:29.364Z,71.40
2017-09-29T23:18:55.530Z,71.60
2017-09-29T23:21:21.722Z,71.60
2017-09-29T23:23:48.699Z,71.30
2017-09-29T23:26:14.873Z,71.30
2017-09-29T23:28:41.763Z,71.40
2017-09-29T23:31:07.905Z,71.40
2017-09-29T23:33:34.798Z,71.40
2017-09-29T23:36:00.981Z,71.40
2017-09-29T23:38:27.126Z,71.20
2017-09-29T23:40:53.327Z,71.30
2017-09-29T23:43:19.475Z,71.20
2017-09-29T23:45:45.623Z,71.10
2017-09-29T23:48:11.791Z,71.30
2017-09-29T23:50:37.964Z,71.50
2017-09-29T23:53:08.764Z,71.50
2017-09-29T23:55:34.996Z,71.30
2017-09-29T23:58:01.192Z,71.80
